AZU2896 SBFL-SBCF
Flight info
| Callsign | AZU2896 |
|---|---|
| Flight time | N/A |
| Altitude | 37000 |
| Route | UBROS UM540 ANISE UZ23 KIBAP |
| Aircraft | A20N/M-SDE2E3FGHIRWXY/LB1 |
Departure
| Time | N/A |
|---|---|
| Airport | Hercílio Luz International Airport (SBFL) |
Arrival
| Time | 2026-05-03 21:55 |
|---|---|
| Airport | Tancredo Neves International Airport (SBCF) |
| Time | Latitude | Longitude | Altitude | Speed | Heading |
|---|---|---|---|---|---|
| 2026-05-03 21:14 | -23.35020 | -46.37208 | 37237 ft | 449 kts | 2° |
| 2026-05-03 21:14 | -23.24539 | -46.34717 | 37230 ft | 449 kts | 2° |
| 2026-05-03 21:15 | -22.99919 | -46.28861 | 37206 ft | 447 kts | 2° |
| 2026-05-03 21:16 | -22.81332 | -46.24332 | 37212 ft | 454 kts | 7° |
| 2026-05-03 21:17 | -22.75608 | -46.22060 | 37221 ft | 464 kts | 15° |
| 2026-05-03 21:17 | -22.69963 | -46.18723 | 37239 ft | 475 kts | 25° |
| 2026-05-03 21:18 | -22.64621 | -46.14363 | 37253 ft | 481 kts | 32° |
| 2026-05-03 21:18 | -22.59468 | -46.09743 | 37254 ft | 481 kts | 33° |
| 2026-05-03 21:19 | -22.54297 | -46.05136 | 37237 ft | 481 kts | 32° |
| 2026-05-03 21:19 | -22.49124 | -46.00554 | 37221 ft | 480 kts | 33° |
| 2026-05-03 21:20 | -22.43930 | -45.95968 | 37213 ft | 479 kts | 32° |
| 2026-05-03 21:20 | -22.38765 | -45.91416 | 37213 ft | 479 kts | 33° |
| 2026-05-03 21:21 | -22.33584 | -45.86852 | 37211 ft | 480 kts | 33° |
| 2026-05-03 21:21 | -22.28402 | -45.82291 | 37210 ft | 479 kts | 33° |
| 2026-05-03 21:22 | -22.23189 | -45.77772 | 37209 ft | 479 kts | 32° |
| 2026-05-03 21:22 | -22.17992 | -45.73297 | 37205 ft | 479 kts | 32° |
| 2026-05-03 21:23 | -22.12772 | -45.68795 | 37208 ft | 479 kts | 32° |
| 2026-05-03 21:23 | -22.07570 | -45.64311 | 37209 ft | 478 kts | 32° |
| 2026-05-03 21:24 | -22.02381 | -45.59837 | 37212 ft | 477 kts | 32° |
| 2026-05-03 21:24 | -21.97177 | -45.55359 | 37220 ft | 477 kts | 33° |
| 2026-05-03 21:25 | -21.91978 | -45.50885 | 37224 ft | 476 kts | 32° |
| 2026-05-03 21:25 | -21.86857 | -45.46487 | 37220 ft | 476 kts | 33° |
| 2026-05-03 21:26 | -21.82207 | -45.42495 | 37212 ft | 475 kts | 33° |
| 2026-05-03 21:26 | -21.77035 | -45.38059 | 37205 ft | 475 kts | 33° |
| 2026-05-03 21:27 | -21.71839 | -45.33605 | 37200 ft | 475 kts | 32° |
| 2026-05-03 21:27 | -21.66672 | -45.29179 | 37204 ft | 473 kts | 32° |
| 2026-05-03 21:28 | -21.61508 | -45.24764 | 37205 ft | 473 kts | 32° |
| 2026-05-03 21:28 | -21.56346 | -45.20353 | 37206 ft | 473 kts | 32° |
| 2026-05-03 21:29 | -21.51174 | -45.15936 | 37206 ft | 472 kts | 32° |
| 2026-05-03 21:29 | -21.46015 | -45.11536 | 37202 ft | 471 kts | 33° |
| 2026-05-03 21:30 | -21.40876 | -45.07157 | 37198 ft | 471 kts | 33° |
| 2026-05-03 21:30 | -21.35693 | -45.02743 | 37196 ft | 470 kts | 33° |
| 2026-05-03 21:31 | -21.30534 | -44.98352 | 37199 ft | 469 kts | 33° |
| 2026-05-03 21:31 | -21.25381 | -44.93970 | 37198 ft | 470 kts | 33° |
| 2026-05-03 21:32 | -21.22817 | -44.91791 | 37047 ft | 465 kts | 33° |
| 2026-05-03 21:32 | -21.20311 | -44.89659 | 36103 ft | 464 kts | 33° |
| 2026-05-03 21:32 | -21.17778 | -44.87512 | 34438 ft | 472 kts | 33° |
| 2026-05-03 21:32 | -21.15160 | -44.85298 | 33122 ft | 469 kts | 33° |
| 2026-05-03 21:33 | -21.12644 | -44.83162 | 32672 ft | 461 kts | 33° |
| 2026-05-03 21:33 | -21.10101 | -44.81005 | 32161 ft | 463 kts | 33° |
| 2026-05-03 21:33 | -21.07605 | -44.78890 | 31685 ft | 458 kts | 33° |
| 2026-05-03 21:33 | -21.05083 | -44.76781 | 31270 ft | 456 kts | 31° |
| 2026-05-03 21:34 | -21.02526 | -44.74795 | 30825 ft | 452 kts | 30° |
| 2026-05-03 21:34 | -20.99994 | -44.72861 | 30383 ft | 449 kts | 30° |
| 2026-05-03 21:34 | -20.97439 | -44.70914 | 29935 ft | 445 kts | 30° |
| 2026-05-03 21:34 | -20.94923 | -44.68994 | 29494 ft | 442 kts | 30° |
| 2026-05-03 21:35 | -20.92441 | -44.67100 | 29059 ft | 439 kts | 30° |
| 2026-05-03 21:35 | -20.89999 | -44.65236 | 28629 ft | 436 kts | 30° |
| 2026-05-03 21:35 | -20.87470 | -44.63308 | 28181 ft | 433 kts | 30° |
| 2026-05-03 21:35 | -20.85025 | -44.61445 | 27740 ft | 431 kts | 30° |
| 2026-05-03 21:36 | -20.82570 | -44.59573 | 27301 ft | 428 kts | 30° |
| 2026-05-03 21:36 | -20.80060 | -44.57894 | 26853 ft | 420 kts | 22° |
| 2026-05-03 21:36 | -20.77408 | -44.56642 | 26411 ft | 411 kts | 13° |
| 2026-05-03 21:36 | -20.74691 | -44.55784 | 25977 ft | 405 kts | 8° |
| 2026-05-03 21:37 | -20.71940 | -44.55045 | 25536 ft | 402 kts | 8° |
| 2026-05-03 21:37 | -20.69233 | -44.54335 | 25096 ft | 400 kts | 8° |
| 2026-05-03 21:37 | -20.66542 | -44.53624 | 24658 ft | 399 kts | 8° |
| 2026-05-03 21:37 | -20.63843 | -44.52902 | 24214 ft | 397 kts | 9° |
| 2026-05-03 21:38 | -20.61151 | -44.52178 | 23772 ft | 395 kts | 9° |
| 2026-05-03 21:38 | -20.58511 | -44.51465 | 23339 ft | 393 kts | 9° |
| 2026-05-03 21:38 | -20.55839 | -44.50742 | 22895 ft | 392 kts | 10° |
| 2026-05-03 21:38 | -20.53209 | -44.50029 | 22459 ft | 390 kts | 10° |
| 2026-05-03 21:39 | -20.50562 | -44.49312 | 22016 ft | 389 kts | 10° |
| 2026-05-03 21:39 | -20.47945 | -44.48602 | 21578 ft | 387 kts | 10° |
| 2026-05-03 21:39 | -20.45334 | -44.47894 | 21143 ft | 385 kts | 11° |
| 2026-05-03 21:39 | -20.42758 | -44.47196 | 20712 ft | 383 kts | 11° |
| 2026-05-03 21:40 | -20.40169 | -44.46495 | 20277 ft | 381 kts | 11° |
| 2026-05-03 21:40 | -20.37578 | -44.45795 | 19841 ft | 379 kts | 11° |
| 2026-05-03 21:40 | -20.35022 | -44.45102 | 19407 ft | 377 kts | 11° |
| 2026-05-03 21:40 | -20.32508 | -44.44419 | 18977 ft | 375 kts | 12° |
| 2026-05-03 21:41 | -20.29984 | -44.43732 | 18544 ft | 373 kts | 12° |
| 2026-05-03 21:41 | -20.27474 | -44.43049 | 18110 ft | 371 kts | 12° |
| 2026-05-03 21:41 | -20.24967 | -44.42367 | 17672 ft | 369 kts | 12° |
| 2026-05-03 21:41 | -20.22475 | -44.41690 | 17239 ft | 367 kts | 12° |
| 2026-05-03 21:42 | -20.20001 | -44.41017 | 16812 ft | 364 kts | 12° |
| 2026-05-03 21:42 | -20.17574 | -44.40357 | 16390 ft | 362 kts | 13° |
| 2026-05-03 21:42 | -20.15122 | -44.39690 | 15953 ft | 359 kts | 13° |
| 2026-05-03 21:42 | -20.12717 | -44.39037 | 15534 ft | 357 kts | 13° |
| 2026-05-03 21:43 | -20.10309 | -44.38383 | 15112 ft | 354 kts | 13° |
| 2026-05-03 21:43 | -20.07929 | -44.37737 | 14697 ft | 352 kts | 13° |
| 2026-05-03 21:43 | -20.05547 | -44.37091 | 14272 ft | 349 kts | 13° |
| 2026-05-03 21:43 | -20.03228 | -44.36463 | 13860 ft | 346 kts | 13° |
| 2026-05-03 21:44 | -20.00891 | -44.35832 | 13439 ft | 343 kts | 14° |
| 2026-05-03 21:44 | -19.98578 | -44.35207 | 13029 ft | 341 kts | 14° |
| 2026-05-03 21:44 | -19.96274 | -44.34583 | 12620 ft | 338 kts | 14° |
| 2026-05-03 21:44 | -19.93979 | -44.33963 | 12201 ft | 336 kts | 14° |
| 2026-05-03 21:45 | -19.91737 | -44.33359 | 11792 ft | 333 kts | 15° |
| 2026-05-03 21:45 | -19.89623 | -44.32787 | 11409 ft | 331 kts | 15° |
| 2026-05-03 21:45 | -19.87389 | -44.32182 | 11069 ft | 325 kts | 15° |
| 2026-05-03 21:45 | -19.85217 | -44.31595 | 11070 ft | 314 kts | 15° |
| 2026-05-03 21:46 | -19.83098 | -44.31021 | 10999 ft | 315 kts | 15° |
| 2026-05-03 21:46 | -19.80984 | -44.30450 | 10588 ft | 315 kts | 15° |
| 2026-05-03 21:46 | -19.78835 | -44.29872 | 10242 ft | 311 kts | 15° |
| 2026-05-03 21:46 | -19.76829 | -44.29231 | 10124 ft | 292 kts | 22° |
| 2026-05-03 21:47 | -19.75015 | -44.28343 | 9865 ft | 286 kts | 30° |
| 2026-05-03 21:47 | -19.73286 | -44.27283 | 9498 ft | 284 kts | 32° |
| 2026-05-03 21:47 | -19.71589 | -44.26202 | 9163 ft | 282 kts | 32° |
| 2026-05-03 21:47 | -19.69898 | -44.25127 | 8825 ft | 280 kts | 32° |
| 2026-05-03 21:48 | -19.68222 | -44.24067 | 8477 ft | 279 kts | 32° |
| 2026-05-03 21:48 | -19.66567 | -44.23025 | 8153 ft | 276 kts | 32° |
| 2026-05-03 21:48 | -19.64919 | -44.22027 | 8010 ft | 266 kts | 29° |
| 2026-05-03 21:48 | -19.63266 | -44.21130 | 7774 ft | 261 kts | 28° |
| 2026-05-03 21:49 | -19.61667 | -44.20271 | 7550 ft | 255 kts | 28° |
| 2026-05-03 21:49 | -19.60106 | -44.19434 | 7362 ft | 248 kts | 28° |
| 2026-05-03 21:49 | -19.58562 | -44.18606 | 7170 ft | 242 kts | 28° |
| 2026-05-03 21:49 | -19.57084 | -44.17799 | 7022 ft | 232 kts | 33° |
| 2026-05-03 21:50 | -19.55840 | -44.16800 | 6944 ft | 222 kts | 46° |
| 2026-05-03 21:50 | -19.54770 | -44.15577 | 6578 ft | 226 kts | 50° |
| 2026-05-03 21:50 | -19.53736 | -44.14310 | 6225 ft | 228 kts | 50° |
| 2026-05-03 21:50 | -19.52695 | -44.13034 | 5888 ft | 228 kts | 50° |
| 2026-05-03 21:51 | -19.51648 | -44.11754 | 5557 ft | 229 kts | 53° |
| 2026-05-03 21:51 | -19.51008 | -44.10241 | 5192 ft | 227 kts | 85° |
| 2026-05-03 21:51 | -19.51257 | -44.08625 | 4922 ft | 220 kts | 116° |
| 2026-05-03 21:51 | -19.52090 | -44.07364 | 4923 ft | 205 kts | 131° |
| 2026-05-03 21:52 | -19.53105 | -44.06334 | 5002 ft | 191 kts | 137° |
| 2026-05-03 21:52 | -19.54082 | -44.05451 | 4776 ft | 179 kts | 138° |
| 2026-05-03 21:52 | -19.55003 | -44.04623 | 4570 ft | 165 kts | 137° |
| 2026-05-03 21:52 | -19.55831 | -44.03865 | 4348 ft | 151 kts | 137° |
| 2026-05-03 21:53 | -19.56608 | -44.03144 | 4159 ft | 146 kts | 137° |
| 2026-05-03 21:53 | -19.57376 | -44.02429 | 3987 ft | 145 kts | 137° |
| 2026-05-03 21:53 | -19.58142 | -44.01718 | 3808 ft | 145 kts | 137° |
| 2026-05-03 21:53 | -19.58899 | -44.01017 | 3632 ft | 144 kts | 137° |
| 2026-05-03 21:54 | -19.59664 | -44.00308 | 3442 ft | 144 kts | 138° |
| 2026-05-03 21:54 | -19.60421 | -43.99607 | 3257 ft | 144 kts | 137° |
| 2026-05-03 21:54 | -19.61169 | -43.98912 | 3078 ft | 143 kts | 137° |
| 2026-05-03 21:54 | -19.61930 | -43.98205 | 2911 ft | 143 kts | 138° |
| 2026-05-03 21:55 | -19.62672 | -43.97522 | 2769 ft | 140 kts | 137° |
| 2026-05-03 21:55 | -19.63359 | -43.96885 | 2748 ft | 113 kts | 137° |
| 2026-05-03 21:55 | -19.63844 | -43.96429 | 2749 ft | 70 kts | 141° |
| 2026-05-03 21:55 | -19.64129 | -43.96170 | 2749 ft | 40 kts | 139° |
| 2026-05-03 21:56 | -19.64299 | -43.96015 | 2749 ft | 22 kts | 139° |
| 2026-05-03 21:56 | -19.64359 | -43.95948 | 2749 ft | 7 kts | 104° |
| 2026-05-03 21:56 | -19.64341 | -43.95891 | 2749 ft | 7 kts | 51° |
| 2026-05-03 21:56 | -19.64319 | -43.95863 | 2749 ft | 3 kts | 50° |
| 2026-05-03 21:57 | -19.64302 | -43.95840 | 2749 ft | 4 kts | 63° |
| 2026-05-03 21:57 | -19.64301 | -43.95800 | 2749 ft | 6 kts | 111° |
| 2026-05-03 21:57 | -19.64337 | -43.95752 | 2749 ft | 9 kts | 140° |
| 2026-05-03 21:57 | -19.64388 | -43.95714 | 2748 ft | 4 kts | 115° |
| 2026-05-03 21:58 | -19.64361 | -43.95721 | 2748 ft | 6 kts | 318° |
| 2026-05-03 21:58 | -19.64323 | -43.95762 | 2749 ft | 9 kts | 314° |
| 2026-05-03 21:58 | -19.64268 | -43.95820 | 2749 ft | 12 kts | 316° |
| 2026-05-03 21:58 | -19.64196 | -43.95889 | 2749 ft | 14 kts | 319° |
| 2026-05-03 21:59 | -19.64119 | -43.95958 | 2749 ft | 14 kts | 320° |
| 2026-05-03 21:59 | -19.64041 | -43.96027 | 2749 ft | 14 kts | 319° |
| 2026-05-03 21:59 | -19.63960 | -43.96102 | 2749 ft | 15 kts | 318° |
| 2026-05-03 21:59 | -19.63881 | -43.96176 | 2749 ft | 15 kts | 319° |
| 2026-05-03 22:00 | -19.63803 | -43.96248 | 2749 ft | 14 kts | 319° |
| 2026-05-03 22:00 | -19.63729 | -43.96316 | 2748 ft | 13 kts | 318° |
| 2026-05-03 22:00 | -19.63651 | -43.96367 | 2748 ft | 13 kts | 0° |
| 2026-05-03 22:00 | -19.63567 | -43.96333 | 2748 ft | 12 kts | 27° |
| 2026-05-03 22:01 | -19.63490 | -43.96294 | 2748 ft | 11 kts | 17° |
| 2026-05-03 22:01 | -19.63432 | -43.96314 | 2748 ft | 9 kts | 307° |
| 2026-05-03 22:01 | -19.63397 | -43.96340 | 2748 ft | 6 kts | 11° |
| 2026-05-03 22:01 | -19.63372 | -43.96328 | 2748 ft | 0 kts | 29° |